Terminal Aerodrome Forecast
Issued by NWS

Home | Current Version | Previous Version | Text Only | Print | Product List | Glossary On
Versions: 1 2 3 4 5 6 7 8 9 10 11 12 13 14 15 16 17 18 19
000
FTUS43 KAPX 241700
TAFTVC
TAF
KTVC 241734Z 2418/2518 13008G15KT P6SM VCSH OVC080
     FM250100 10008G15KT P6SM OVC100 WS020/14037KT
     FM250400 10008KT P6SM -RA OVC060 WS020/15040KT
     FM250900 11005KT 6SM -RA OVC035
     FM251500 27008KT P6SM SCT035=

USA.gov is the U.S. government's official web portal to all federal, state and local government web resources and services.